»·PEaware :: N8573X KBFL-KSMX

N8573X :: KBFL-KSMX

FLIGHT INFORMATION

Flight Status: Arrived
Operator: Privately registered:
United States
More flights under this callsign
Pilot: Tommy H. (35970)
Aircraft: PIPER PA-28 CHEROKEE ARCHER
(P28A)
More flights by this aircraft type
Origin: KBFL Meadows
United States
Destination: KSMX Santa Maria Pub/Capt Hancock
United States
More flights between these airports :: More routes between these airports
Route:
File this flight plan on PilotEdge
Remarks:
Altitude:
(Current/Filed)
0ft
Speed:
(Current/Filed)
0kts
Departed: 06-Nov-21 09:16 AM
Arrived: 06-Nov-21 10:14 AM
Distance/Time
Traveled:
76nm/0:57
Distance/Time
To Go:
Arrived

Flight Plot

Page will automatically refresh every two minutes.


Map Options




Map Legend


Flown Route
Filed Route
Departure Airport
Arrival Airport
Navaid (VOR, NDB)
Fix

Horizontal Profiles

Position Reports

Time Latitude Longitude Heading Altitude Ground
Speed
06-Nov-21 09:04 35.429658 -119.046616 136 499ft 0kts
06-Nov-21 09:05 35.429658 -119.046616 136 499ft 0kts
06-Nov-21 09:06 35.429658 -119.046616 136 499ft 0kts
06-Nov-21 09:07 35.429140 -119.046856 178 496ft 10kts
06-Nov-21 09:08 35.427772 -119.046593 134 490ft 8kts
06-Nov-21 09:09 35.426368 -119.044898 136 485ft 7kts
06-Nov-21 09:10 35.425670 -119.044781 12 483ft 1kts
06-Nov-21 09:11 35.425695 -119.044797 328 483ft 0kts
06-Nov-21 09:12 35.425694 -119.044797 328 483ft 0kts
06-Nov-21 09:13 35.425741 -119.044830 331 483ft 3kts
06-Nov-21 09:14 35.425769 -119.045100 220 482ft 2kts
06-Nov-21 09:15 35.425916 -119.046610 313 479ft 44kts
06-Nov-21 09:16 35.434467 -119.058174 290 1017ft 76kts
06-Nov-21 09:17 35.429642 -119.073878 238 1671ft 80kts
06-Nov-21 09:18 35.422231 -119.089603 241 2330ft 80kts
06-Nov-21 09:19 35.415665 -119.106390 240 2966ft 81kts
06-Nov-21 09:20 35.408667 -119.123250 244 3586ft 81kts
06-Nov-21 09:21 35.402240 -119.140840 242 4177ft 82kts
06-Nov-21 09:22 35.395680 -119.158761 243 4756ft 82kts
06-Nov-21 09:23 35.388993 -119.177427 244 5312ft 83kts
06-Nov-21 09:24 35.382592 -119.195939 245 5834ft 84kts
06-Nov-21 09:25 35.376929 -119.213619 250 6298ft 85kts
06-Nov-21 09:26 35.370580 -119.231319 245 6558ft 102kts
06-Nov-21 09:27 35.363015 -119.253114 248 6542ft 114kts
06-Nov-21 09:28 35.353378 -119.280692 242 6497ft 114kts
06-Nov-21 09:29 35.342078 -119.307534 241 6474ft 112kts
06-Nov-21 09:30 35.330661 -119.334588 244 6450ft 113kts
06-Nov-21 09:31 35.320369 -119.362136 245 6449ft 112kts
06-Nov-21 09:32 35.310064 -119.388956 244 6501ft 112kts
06-Nov-21 09:33 35.299480 -119.415519 244 6508ft 113kts
06-Nov-21 09:34 35.288842 -119.442016 244 6532ft 113kts
06-Nov-21 09:35 35.278442 -119.468844 244 6550ft 113kts
06-Nov-21 09:36 35.268546 -119.496115 246 6541ft 114kts
06-Nov-21 09:37 35.258836 -119.524028 247 6480ft 116kts
06-Nov-21 09:38 35.249771 -119.552238 247 6418ft 116kts
06-Nov-21 09:39 35.239639 -119.579749 244 6408ft 114kts
06-Nov-21 09:40 35.229100 -119.606486 235 6407ft 114kts
06-Nov-21 09:41 35.218331 -119.632842 249 6462ft 112kts
06-Nov-21 09:42 35.209442 -119.660556 248 6540ft 112kts
06-Nov-21 09:43 35.200027 -119.687699 245 6607ft 112kts
06-Nov-21 09:44 35.189551 -119.715461 245 6571ft 116kts
06-Nov-21 09:45 35.179556 -119.744469 247 6462ft 116kts
06-Nov-21 09:46 35.168695 -119.773019 244 6371ft 115kts
06-Nov-21 09:47 35.158962 -119.800975 246 6472ft 109kts
06-Nov-21 09:48 35.148473 -119.828139 243 6511ft 114kts
06-Nov-21 09:49 35.137584 -119.855946 242 6533ft 115kts
06-Nov-21 09:50 35.126586 -119.883705 244 6542ft 115kts
06-Nov-21 09:51 35.115715 -119.911153 244 6538ft 115kts
06-Nov-21 09:52 35.105391 -119.939390 244 6524ft 115kts
06-Nov-21 09:53 35.094946 -119.967334 244 6526ft 115kts
06-Nov-21 09:54 35.083987 -119.994426 245 6519ft 115kts
06-Nov-21 09:55 35.073371 -120.021458 242 6515ft 115kts
06-Nov-21 09:56 35.061763 -120.047273 243 6510ft 115kts
06-Nov-21 09:57 35.051094 -120.073908 243 6506ft 115kts
06-Nov-21 09:58 35.040307 -120.100724 243 6501ft 115kts
06-Nov-21 09:59 35.029410 -120.127688 242 6496ft 115kts
06-Nov-21 10:00 35.018125 -120.154158 242 6491ft 115kts
06-Nov-21 10:01 35.007044 -120.180795 244 6458ft 115kts
06-Nov-21 10:02 34.997299 -120.207777 245 6213ft 116kts
06-Nov-21 10:03 34.988175 -120.235022 251 5860ft 115kts
06-Nov-21 10:04 34.978225 -120.261298 233 5425ft 114kts
06-Nov-21 10:05 34.963938 -120.285338 232 4836ft 114kts
06-Nov-21 10:06 34.948709 -120.309489 236 4194ft 114kts
06-Nov-21 10:07 34.935702 -120.335708 235 3548ft 113kts
06-Nov-21 10:08 34.920107 -120.359450 233 2890ft 112kts
06-Nov-21 10:09 34.906084 -120.383857 237 2118ft 111kts
06-Nov-21 10:10 34.894691 -120.406778 238 1536ft 83kts
06-Nov-21 10:11 34.885833 -120.422064 237 1153ft 72kts
06-Nov-21 10:12 34.885400 -120.437264 322 598ft 66kts
06-Nov-21 10:13 34.894747 -120.448215 321 264ft 40kts
06-Nov-21 10:14 34.897435 -120.450286 359 264ft 4kts
06-Nov-21 10:15 34.898607 -120.450313 306 264ft 5kts
06-Nov-21 10:16 34.900132 -120.451416 337 264ft 7kts
06-Nov-21 10:17 34.900614 -120.451442 313 264ft 0kts

Navigation Log

Ident Type
Flight plan parsing failed, navigation log unavailable